Time;durP1;ratioP1;P1;durP2;ratioP2;P2;SDS_P1;SDS_P2;PMS_P1;PMS_P2;Temp;Humidity;BMP_temperature;BMP_pressure;BME280_temperature;BME280_humidity;BME280_pressure;Samples;Min_cycle;Max_cycle;Signal;HPM_P1;HPM_P2
2023/10/03 00:01:45;;;;;;;18.08;12.98;;;18.70;96.50;;;;;;5039783;28;20467;-69
2023/10/03 00:04:12;;;;;;;17.10;11.73;;;18.80;96.30;;;;;;5045389;28;20423;-69
2023/10/03 00:06:39;;;;;;;16.90;12.00;;;18.80;95.80;;;;;;5032114;28;20498;-70
2023/10/03 00:09:08;;;;;;;17.17;11.93;;;18.90;96.20;;;;;;5043658;28;20561;-67
2023/10/03 00:11:35;;;;;;;17.17;12.45;;;18.90;95.60;;;;;;5043344;28;20449;-69
2023/10/03 00:14:06;;;;;;;14.68;11.30;;;18.90;95.40;;;;;;5031492;28;20423;-69
2023/10/03 00:16:33;;;;;;;17.15;12.65;;;19.00;95.30;;;;;;5044747;28;20479;-69
2023/10/03 00:19:00;;;;;;;16.75;12.25;;;19.00;95.30;;;;;;5040773;28;20409;-68
2023/10/03 00:21:27;;;;;;;16.70;12.40;;;19.00;95.30;;;;;;5040653;28;20422;-69
2023/10/03 00:23:54;;;;;;;16.25;12.18;;;19.00;95.40;;;;;;5048309;28;20417;-69
2023/10/03 00:26:23;;;;;;;14.70;11.60;;;19.00;95.50;;;;;;5040131;28;20427;-69
2023/10/03 00:28:51;;;;;;;17.30;12.60;;;19.00;95.50;;;;;;5046044;28;20779;-69
2023/10/03 00:31:19;;;;;;;17.95;11.90;;;18.90;95.60;;;;;;5044038;28;20483;-68
2023/10/03 00:33:46;;;;;;;16.47;12.23;;;18.90;95.60;;;;;;5038756;28;20456;-68
2023/10/03 00:36:18;;;;;;;16.73;11.38;;;18.90;95.80;;;;;;5040360;28;20422;-69
2023/10/03 00:38:45;;;;;;;18.15;12.40;;;18.90;95.80;;;;;;5042175;28;20427;-69
2023/10/03 00:41:12;;;;;;;18.08;12.77;;;18.90;95.70;;;;;;5040568;28;20427;-66
2023/10/03 00:43:52;;;;;;;16.33;12.23;;;18.90;96.00;;;;;;5040685;28;20453;-69
2023/10/03 00:46:19;;;;;;;16.33;11.60;;;18.90;95.90;;;;;;5042619;28;20417;-69
2023/10/03 00:48:47;;;;;;;18.38;12.35;;;18.90;96.10;;;;;;5036334;28;20475;-68
2023/10/03 00:51:14;;;;;;;18.67;12.70;;;18.90;96.00;;;;;;5041441;28;20415;-69
2023/10/03 00:53:43;;;;;;;15.65;12.18;;;18.90;96.10;;;;;;5043389;28;20426;-70
2023/10/03 00:56:10;;;;;;;17.30;12.02;;;18.90;96.10;;;;;;5034550;28;20446;-69
2023/10/03 00:58:37;;;;;;;17.63;12.48;;;18.90;95.80;;;;;;5035674;28;20815;-69
2023/10/03 01:01:05;;;;;;;17.15;12.70;;;18.80;95.90;;;;;;5040766;28;20916;-70
2023/10/03 01:03:36;;;;;;;16.83;12.07;;;18.90;95.70;;;;;;5043554;28;20422;-69
2023/10/03 01:06:08;;;;;;;15.27;11.50;;;18.90;95.80;;;;;;5039300;28;20413;-69
2023/10/03 01:08:36;;;;;;;18.08;12.70;;;18.90;95.60;;;;;;5046022;28;20438;-68
2023/10/03 01:11:04;;;;;;;16.92;12.00;;;18.90;95.90;;;;;;5048234;28;20458;-69
2023/10/03 01:13:32;;;;;;;16.70;13.07;;;18.90;95.80;;;;;;5039118;28;20453;-69
2023/10/03 01:15:59;;;;;;;17.08;12.68;;;18.80;95.90;;;;;;5040474;28;20716;-70
2023/10/03 01:18:31;;;;;;;15.55;12.00;;;18.80;95.90;;;;;;5048077;28;20413;-69
2023/10/03 01:21:00;;;;;;;16.40;12.40;;;18.80;95.90;;;;;;5040547;28;20422;-70
2023/10/03 01:23:33;;;;;;;17.90;12.90;;;18.80;96.10;;;;;;5041951;28;20429;-69
2023/10/03 01:26:00;;;;;;;17.15;12.23;;;18.80;96.00;;;;;;5033516;28;20465;-69
2023/10/03 01:28:27;;;;;;;17.98;11.70;;;18.80;96.00;;;;;;5039082;28;20435;-70
2023/10/03 01:30:54;;;;;;;16.27;11.43;;;18.80;96.00;;;;;;5039498;28;20508;-70
2023/10/03 01:33:26;;;;;;;17.38;12.50;;;18.80;96.00;;;;;;5044946;28;20413;-68
2023/10/03 01:35:53;;;;;;;15.57;11.82;;;18.80;96.00;;;;;;5028660;28;20417;-67
2023/10/03 01:38:20;;;;;;;15.73;11.75;;;18.80;96.10;;;;;;5043419;28;20405;-69
2023/10/03 01:40:51;;;;;;;18.55;12.88;;;18.80;96.20;;;;;;5033093;28;20439;-70
2023/10/03 01:43:19;;;;;;;18.23;12.03;;;18.80;96.50;;;;;;5036025;28;20491;-69
2023/10/03 01:45:45;;;;;;;16.60;12.35;;;18.80;96.30;;;;;;5037350;28;20518;-69
2023/10/03 01:48:12;;;;;;;16.57;11.90;;;18.80;96.40;;;;;;5045769;28;21270;-67
2023/10/03 01:50:40;;;;;;;15.50;11.67;;;18.80;96.30;;;;;;5026861;28;20409;-69
2023/10/03 01:53:07;;;;;;;16.55;11.93;;;18.80;96.30;;;;;;5044233;28;20495;-68
2023/10/03 01:55:35;;;;;;;15.43;11.70;;;18.80;96.30;;;;;;5035877;28;20493;-69
2023/10/03 01:58:04;;;;;;;18.90;12.52;;;18.80;96.40;;;;;;5035433;28;20907;-69
2023/10/03 02:00:34;;;;;;;15.70;12.50;;;18.80;96.40;;;;;;5047426;28;20463;-69
2023/10/03 02:03:04;;;;;;;16.17;11.80;;;18.80;96.50;;;;;;5039140;28;20439;-69
2023/10/03 02:05:33;;;;;;;16.45;12.73;;;18.80;96.70;;;;;;5046590;28;20500;-70
2023/10/03 02:08:04;;;;;;;16.08;11.85;;;18.80;96.60;;;;;;5040259;28;20503;-68
2023/10/03 02:10:34;;;;;;;15.70;11.20;;;18.80;96.60;;;;;;5031924;28;20959;-68
2023/10/03 02:13:08;;;;;;;15.35;11.80;;;18.80;96.70;;;;;;5038512;28;20459;-68
2023/10/03 02:15:36;;;;;;;16.50;11.67;;;18.70;96.80;;;;;;5044810;28;20413;-69
2023/10/03 02:18:05;;;;;;;16.20;12.10;;;18.70;96.70;;;;;;5038324;28;20453;-69
2023/10/03 02:20:38;;;;;;;17.38;12.70;;;18.70;96.80;;;;;;5042202;28;20421;-69
2023/10/03 02:23:06;;;;;;;14.67;11.63;;;18.70;97.00;;;;;;5044315;28;20418;-68
2023/10/03 02:25:36;;;;;;;16.65;12.07;;;18.70;96.90;;;;;;5035976;28;20974;-69
2023/10/03 02:28:06;;;;;;;15.50;11.40;;;18.80;96.90;;;;;;5040890;28;20531;-69
2023/10/03 02:30:34;;;;;;;16.92;11.98;;;18.70;96.80;;;;;;5037913;28;20992;-69
2023/10/03 02:33:09;;;;;;;17.08;11.80;;;18.80;96.80;;;;;;5032807;28;20909;-69
2023/10/03 02:35:38;;;;;;;15.13;11.07;;;18.80;97.00;;;;;;5040319;28;20418;-70
2023/10/03 02:38:09;;;;;;;17.45;11.52;;;18.80;96.70;;;;;;5041135;28;20498;-70
2023/10/03 02:40:36;;;;;;;16.83;12.10;;;18.80;96.70;;;;;;5036096;28;20585;-70
2023/10/03 02:43:06;;;;;;;15.82;11.82;;;18.80;96.70;;;;;;5040602;28;20433;-70
2023/10/03 02:45:33;;;;;;;18.00;12.70;;;18.80;96.70;;;;;;5037679;28;20461;-69
2023/10/03 02:48:07;;;;;;;14.70;11.20;;;18.80;96.50;;;;;;5033786;28;20514;-69
2023/10/03 02:50:34;;;;;;;18.20;11.38;;;18.80;96.40;;;;;;5046673;28;20439;-70
2023/10/03 02:53:12;;;;;;;18.27;11.90;;;18.80;96.40;;;;;;5045260;28;20961;-67
2023/10/03 02:55:40;;;;;;;15.98;11.73;;;18.80;96.60;;;;;;5022559;28;20517;-70
2023/10/03 02:58:09;;;;;;;17.50;12.50;;;18.80;96.70;;;;;;5042245;28;20425;-70
2023/10/03 03:00:37;;;;;;;16.23;11.20;;;18.80;96.70;;;;;;5047043;28;20417;-69
2023/10/03 03:03:06;;;;;;;15.85;11.70;;;18.80;96.70;;;;;;5031918;28;20497;-69
2023/10/03 03:05:36;;;;;;;15.13;11.75;;;18.80;96.70;;;;;;5036608;28;20427;-69
2023/10/03 03:08:10;;;;;;;16.75;11.85;;;18.80;96.70;;;;;;5038360;28;20429;-68
2023/10/03 03:10:38;;;;;;;16.02;11.48;;;18.80;96.90;;;;;;5042626;28;20428;-69
2023/10/03 03:13:07;;;;;;;16.17;11.68;;;18.80;97.00;;;;;;5031146;28;20411;-70
2023/10/03 03:15:37;;;;;;;17.25;11.50;;;18.80;97.10;;;;;;5060082;22;20441;-67
2023/10/03 03:18:04;;;;;;;14.23;11.38;;;18.80;97.30;;;;;;5044218;28;20425;-69
2023/10/03 03:20:37;;;;;;;14.88;11.05;;;18.80;97.30;;;;;;5059488;28;20404;-68
2023/10/03 03:23:06;;;;;;;17.02;11.82;;;18.80;97.30;;;;;;5060982;28;20422;-68
2023/10/03 03:25:36;;;;;;;16.85;11.07;;;18.70;97.10;;;;;;5060723;28;20433;-68
2023/10/03 03:28:13;;;;;;;15.70;10.88;;;18.80;96.90;;;;;;5064213;28;20495;-68
2023/10/03 03:30:45;;;;;;;17.52;12.40;;;18.80;96.80;;;;;;5052046;28;20484;-69
2023/10/03 03:33:14;;;;;;;15.63;11.10;;;18.80;96.70;;;;;;5059488;28;20418;-68
2023/10/03 03:35:41;;;;;;;15.73;10.93;;;18.80;96.40;;;;;;5056165;28;20447;-68
2023/10/03 03:38:14;;;;;;;13.97;10.20;;;18.90;96.40;;;;;;5063074;28;20431;-68
2023/10/03 03:40:45;;;;;;;14.45;10.93;;;18.90;96.30;;;;;;5056925;28;20425;-69
2023/10/03 03:43:13;;;;;;;14.80;10.52;;;18.90;96.10;;;;;;5058906;28;20494;-69
2023/10/03 03:45:41;;;;;;;14.20;10.80;;;18.90;96.00;;;;;;5062347;28;20467;-68
2023/10/03 03:48:09;;;;;;;14.10;9.60;;;19.00;95.80;;;;;;5054575;28;20430;-68
2023/10/03 03:50:37;;;;;;;13.20;10.50;;;19.00;95.70;;;;;;5050161;28;20431;-68
2023/10/03 03:53:04;;;;;;;15.40;10.70;;;19.00;95.60;;;;;;5050156;28;20441;-68
2023/10/03 03:55:31;;;;;;;14.40;10.60;;;19.00;95.50;;;;;;5058078;28;20436;-69
2023/10/03 03:57:59;;;;;;;14.93;10.90;;;19.00;95.70;;;;;;5053945;28;20419;-68
2023/10/03 04:00:28;;;;;;;16.23;11.18;;;19.10;95.50;;;;;;5059608;28;20417;-69
2023/10/03 04:02:59;;;;;;;13.88;10.20;;;19.10;95.50;;;;;;5064129;28;20504;-69
2023/10/03 04:05:29;;;;;;;13.85;9.68;;;19.10;95.40;;;;;;5056016;28;20429;-68
2023/10/03 04:07:57;;;;;;;16.05;11.00;;;19.10;95.10;;;;;;5064471;28;20495;-68
2023/10/03 04:10:23;;;;;;;14.55;10.38;;;19.10;95.10;;;;;;5055944;28;20425;-69
2023/10/03 04:12:50;;;;;;;14.02;10.23;;;19.10;95.60;;;;;;5059546;28;20494;-68
2023/10/03 04:15:19;;;;;;;13.57;9.73;;;19.10;94.90;;;;;;5062866;28;20917;-69
2023/10/03 04:17:48;;;;;;;12.85;9.63;;;19.10;95.10;;;;;;5054084;28;20423;-69
2023/10/03 04:20:30;;;;;;;12.50;9.53;;;19.10;95.00;;;;;;5053324;28;20541;-69
2023/10/03 04:22:58;;;;;;;14.13;10.50;;;19.10;94.70;;;;;;5049869;28;20395;-69
2023/10/03 04:25:25;;;;;;;13.73;10.17;;;19.10;94.90;;;;;;5058739;28;20425;-69
2023/10/03 04:27:54;;;;;;;13.05;9.85;;;19.20;94.50;;;;;;5059627;28;20408;-68
2023/10/03 04:30:25;;;;;;;14.32;9.90;;;19.20;94.70;;;;;;5052499;28;20773;-69
2023/10/03 04:32:53;;;;;;;12.03;9.40;;;19.20;95.00;;;;;;5055070;28;20411;-69
2023/10/03 04:35:22;;;;;;;12.47;9.57;;;19.20;94.60;;;;;;5055303;28;20549;-69
2023/10/03 04:37:51;;;;;;;12.63;9.50;;;19.20;94.70;;;;;;5049593;28;20432;-68
2023/10/03 04:40:22;;;;;;;13.55;9.57;;;19.20;94.70;;;;;;5061671;28;20419;-68
2023/10/03 04:42:49;;;;;;;11.55;8.60;;;19.20;94.60;;;;;;5050777;28;20440;-69
2023/10/03 04:45:19;;;;;;;11.77;9.00;;;19.20;95.10;;;;;;5061091;28;20413;-67
2023/10/03 04:47:47;;;;;;;14.02;10.15;;;19.20;94.90;;;;;;5061533;28;20422;-68
2023/10/03 04:50:17;;;;;;;12.65;9.50;;;19.10;94.90;;;;;;5059566;28;20950;-69
2023/10/03 04:52:48;;;;;;;12.93;9.43;;;19.10;95.10;;;;;;5045983;28;20511;-68
2023/10/03 04:55:16;;;;;;;12.07;9.27;;;19.10;95.10;;;;;;5055749;28;20401;-68
2023/10/03 04:57:44;;;;;;;10.70;8.65;;;19.10;95.20;;;;;;5048832;28;20433;-69
2023/10/03 05:00:15;;;;;;;13.60;9.50;;;19.10;95.30;;;;;;5049213;28;20478;-69
2023/10/03 05:02:45;;;;;;;12.68;10.00;;;19.10;95.40;;;;;;5057004;28;20422;-70
2023/10/03 05:05:12;;;;;;;12.68;9.70;;;19.10;94.90;;;;;;5057101;28;20460;-70
2023/10/03 05:07:38;;;;;;;11.50;8.87;;;19.10;94.80;;;;;;5052511;28;20561;-70
2023/10/03 05:10:08;;;;;;;11.88;8.90;;;19.10;95.00;;;;;;5061224;28;20431;-69
2023/10/03 05:12:35;;;;;;;13.15;9.27;;;19.10;95.40;;;;;;5060579;28;20447;-70
2023/10/03 05:15:02;;;;;;;14.40;9.25;;;19.10;94.80;;;;;;5064222;28;20431;-70
2023/10/03 05:17:28;;;;;;;13.65;9.20;;;19.10;94.40;;;;;;5059178;28;20433;-70
2023/10/03 05:19:58;;;;;;;12.63;9.45;;;19.10;94.40;;;;;;5057756;28;20418;-70
2023/10/03 05:22:25;;;;;;;10.50;8.60;;;19.10;94.30;;;;;;5050779;28;20437;-70
2023/10/03 05:24:52;;;;;;;10.60;8.37;;;19.20;94.10;;;;;;5056528;28;20414;-70
2023/10/03 05:27:20;;;;;;;11.30;8.23;;;19.20;94.10;;;;;;5050230;28;20437;-69
2023/10/03 05:29:47;;;;;;;11.30;8.82;;;19.20;93.80;;;;;;5057651;28;20435;-70
2023/10/03 05:32:14;;;;;;;12.60;8.50;;;19.20;93.70;;;;;;5052680;28;20427;-70
2023/10/03 05:34:41;;;;;;;11.40;8.57;;;19.30;93.30;;;;;;5057431;28;20826;-70
2023/10/03 05:37:08;;;;;;;10.90;8.13;;;19.30;93.30;;;;;;5059142;28;20930;-70
2023/10/03 05:39:35;;;;;;;10.00;8.40;;;19.30;93.20;;;;;;5048291;28;20780;-70
2023/10/03 05:42:02;;;;;;;10.40;8.23;;;19.30;93.10;;;;;;5050899;28;20448;-70
2023/10/03 05:44:30;;;;;;;9.90;7.50;;;19.30;93.10;;;;;;5058087;28;20408;-70
2023/10/03 05:46:56;;;;;;;10.82;8.23;;;19.30;93.20;;;;;;5049955;28;20409;-70
2023/10/03 05:49:24;;;;;;;9.85;8.23;;;19.30;93.00;;;;;;5062471;28;20442;-70
2023/10/03 05:51:55;;;;;;;11.02;8.00;;;19.30;93.00;;;;;;5054113;28;20408;-70
2023/10/03 05:54:22;;;;;;;11.00;8.27;;;19.40;93.00;;;;;;5055205;28;20466;-70
2023/10/03 05:56:49;;;;;;;11.93;8.30;;;19.40;93.10;;;;;;5053286;28;20429;-70
2023/10/03 05:59:16;;;;;;;10.88;8.45;;;19.40;93.30;;;;;;5058246;28;20873;-70
2023/10/03 06:01:44;;;;;;;10.82;8.18;;;19.30;93.10;;;;;;5058971;28;20994;-70
2023/10/03 06:04:11;;;;;;;11.45;8.60;;;19.40;93.10;;;;;;5056239;28;20428;-70
2023/10/03 06:06:38;;;;;;;9.40;7.20;;;19.40;93.70;;;;;;5050938;28;20961;-70
2023/10/03 06:09:05;;;;;;;12.48;8.40;;;19.40;93.50;;;;;;5053682;28;20421;-70
2023/10/03 06:11:33;;;;;;;9.95;7.63;;;19.40;93.30;;;;;;5048330;28;20787;-70
2023/10/03 06:14:00;;;;;;;9.50;7.50;;;19.40;93.60;;;;;;5053091;28;20465;-70
2023/10/03 06:16:28;;;;;;;9.80;8.23;;;19.50;93.50;;;;;;5050547;28;20410;-70
2023/10/03 06:18:58;;;;;;;12.80;7.88;;;19.50;93.20;;;;;;5060574;28;21272;-70
2023/10/03 06:21:25;;;;;;;10.75;7.30;;;19.60;93.20;;;;;;5065308;28;20599;-70
2023/10/03 06:23:52;;;;;;;9.52;7.68;;;19.70;93.10;;;;;;5049665;28;20444;-70
2023/10/03 06:26:20;;;;;;;9.23;7.40;;;19.80;93.00;;;;;;5062464;28;20431;-70
2023/10/03 06:28:48;;;;;;;9.10;7.10;;;19.90;92.80;;;;;;5047320;28;20419;-70
2023/10/03 06:31:15;;;;;;;9.55;7.00;;;20.00;92.70;;;;;;5054949;28;20436;-70
2023/10/03 06:33:43;;;;;;;8.98;7.05;;;20.10;92.60;;;;;;5056441;28;20435;-70
2023/10/03 06:36:12;;;;;;;9.90;7.20;;;20.20;92.50;;;;;;5060687;28;20481;-70
2023/10/03 06:38:41;;;;;;;11.02;8.13;;;20.30;92.50;;;;;;5057292;28;20930;-70
2023/10/03 06:41:09;;;;;;;9.20;7.00;;;20.30;92.50;;;;;;5057089;28;20413;-71
2023/10/03 06:43:35;;;;;;;9.40;6.88;;;20.40;92.70;;;;;;5053460;28;20441;-70
2023/10/03 06:46:05;;;;;;;9.25;7.18;;;20.40;92.60;;;;;;5053759;28;20882;-70
2023/10/03 06:48:32;;;;;;;10.27;6.82;;;20.40;92.80;;;;;;5048980;28;20417;-70
2023/10/03 06:51:04;;;;;;;8.15;6.38;;;20.40;92.80;;;;;;5053223;28;20431;-70
2023/10/03 06:53:32;;;;;;;8.60;6.30;;;20.40;92.70;;;;;;5052766;28;21065;-70
2023/10/03 06:56:00;;;;;;;9.02;6.57;;;20.40;92.60;;;;;;5054779;28;20409;-70
2023/10/03 06:58:27;;;;;;;9.45;7.20;;;20.50;92.40;;;;;;5049691;28;20482;-70
2023/10/03 07:00:55;;;;;;;13.52;7.30;;;20.60;92.40;;;;;;5062029;28;20416;-70
2023/10/03 07:03:22;;;;;;;8.30;6.50;;;20.60;92.20;;;;;;5057099;28;20448;-69
2023/10/03 07:05:49;;;;;;;9.90;6.60;;;20.60;92.20;;;;;;5047831;28;20413;-69
2023/10/03 07:08:16;;;;;;;8.40;6.60;;;20.70;92.00;;;;;;5055139;28;20433;-69
2023/10/03 07:10:44;;;;;;;10.00;6.43;;;20.70;92.10;;;;;;5059182;28;20428;-69
2023/10/03 07:13:12;;;;;;;8.73;7.50;;;20.70;92.00;;;;;;5051048;28;20440;-69
2023/10/03 07:15:40;;;;;;;9.65;6.65;;;20.80;91.90;;;;;;5064708;28;20421;-70
2023/10/03 07:18:06;;;;;;;9.63;7.05;;;20.80;92.00;;;;;;5050985;28;20939;-69
2023/10/03 07:20:34;;;;;;;8.70;6.50;;;20.80;91.80;;;;;;5061726;28;20428;-70
2023/10/03 07:23:02;;;;;;;10.05;6.50;;;20.80;91.80;;;;;;5059484;28;20518;-69
2023/10/03 07:25:31;;;;;;;10.02;7.25;;;20.80;91.90;;;;;;5062215;28;20419;-70
2023/10/03 07:27:59;;;;;;;8.55;6.80;;;20.80;91.90;;;;;;5055535;28;20869;-69
2023/10/03 07:30:26;;;;;;;9.15;6.95;;;20.70;92.10;;;;;;5054140;28;20429;-69
2023/10/03 07:32:53;;;;;;;9.02;6.07;;;20.70;92.10;;;;;;5058870;28;20874;-70
2023/10/03 07:35:21;;;;;;;7.55;6.00;;;20.70;92.30;;;;;;5057425;28;20416;-70
2023/10/03 07:37:50;;;;;;;7.50;5.82;;;20.60;92.50;;;;;;5056671;28;20439;-69
2023/10/03 07:40:17;;;;;;;8.00;5.80;;;20.60;92.70;;;;;;5053914;28;20409;-69
2023/10/03 07:42:44;;;;;;;5.75;5.10;;;20.50;93.00;;;;;;5051521;28;20429;-70
2023/10/03 07:45:12;;;;;;;7.45;5.68;;;20.40;93.10;;;;;;5053519;28;20417;-69
2023/10/03 07:47:41;;;;;;;6.78;5.40;;;20.30;93.50;;;;;;5069275;28;20913;-70
2023/10/03 07:50:11;;;;;;;8.33;5.37;;;20.20;93.80;;;;;;5059775;28;20429;-69
2023/10/03 07:52:38;;;;;;;7.97;5.53;;;20.10;94.10;;;;;;5057182;28;20456;-70
2023/10/03 07:55:05;;;;;;;6.85;5.22;;;20.10;94.50;;;;;;5050162;28;20424;-69
2023/10/03 07:57:32;;;;;;;7.72;5.78;;;20.10;94.70;;;;;;5050203;28;20409;-69
2023/10/03 07:59:59;;;;;;;7.63;5.20;;;20.00;94.80;;;;;;5063417;28;20415;-69
2023/10/03 08:02:32;;;;;;;7.70;5.25;;;20.00;95.20;;;;;;5065937;28;20407;-70
2023/10/03 08:05:00;;;;;;;7.20;5.00;;;20.00;95.30;;;;;;5062478;28;20411;-69
2023/10/03 08:07:27;;;;;;;7.55;5.60;;;20.00;95.40;;;;;;5061466;28;20548;-68
2023/10/03 08:09:54;;;;;;;8.30;5.30;;;20.00;95.30;;;;;;5055339;28;20483;-69
2023/10/03 08:12:23;;;;;;;7.30;5.57;;;20.10;95.30;;;;;;5057449;28;20419;-70
2023/10/03 08:14:52;;;;;;;6.00;5.30;;;20.10;95.30;;;;;;5050925;28;20469;-69
2023/10/03 08:17:18;;;;;;;8.10;5.70;;;20.20;95.20;;;;;;5061247;28;20435;-69
2023/10/03 08:19:49;;;;;;;8.45;5.30;;;20.20;95.00;;;;;;5061285;28;20426;-69
2023/10/03 08:22:15;;;;;;;7.28;4.90;;;20.30;94.60;;;;;;5055150;28;20407;-69
2023/10/03 08:24:44;;;;;;;5.18;4.55;;;20.30;93.70;;;;;;5060265;28;20538;-69
2023/10/03 08:27:18;;;;;;;6.43;4.43;;;20.40;93.40;;;;;;5049807;28;20513;-69
2023/10/03 08:29:45;;;;;;;5.97;4.60;;;20.40;93.30;;;;;;5062291;28;20420;-69
2023/10/03 08:32:12;;;;;;;4.60;3.60;;;20.50;92.90;;;;;;5053149;28;20509;-69
2023/10/03 08:34:44;;;;;;;4.65;3.60;;;20.50;92.30;;;;;;5057843;28;20433;-69
2023/10/03 08:37:21;;;;;;;5.20;3.80;;;20.60;91.80;;;;;;5060352;28;20421;-69
2023/10/03 08:39:49;;;;;;;4.90;3.80;;;20.60;91.80;;;;;;5046114;28;20984;-69
2023/10/03 08:42:18;;;;;;;3.67;3.35;;;20.60;91.50;;;;;;5054883;28;20452;-69
2023/10/03 08:44:51;;;;;;;3.75;3.30;;;20.70;91.30;;;;;;5051645;28;20493;-69
2023/10/03 08:47:25;;;;;;;4.65;3.50;;;20.60;91.30;;;;;;5063524;28;20415;-68
2023/10/03 08:50:10;;;;;;;5.38;3.92;;;20.60;91.00;;;;;;5056431;28;20468;-68
2023/10/03 08:52:46;;;;;;;3.78;3.33;;;20.60;90.80;;;;;;5052009;28;20441;-68
2023/10/03 08:55:14;;;;;;;3.90;3.10;;;20.70;90.80;;;;;;5063743;28;20416;-69
2023/10/03 08:57:41;;;;;;;3.67;2.90;;;20.70;91.10;;;;;;5056868;28;20486;-69
2023/10/03 09:00:09;;;;;;;4.07;3.30;;;20.70;90.60;;;;;;5048946;28;20429;-69
2023/10/03 09:02:45;;;;;;;4.50;3.03;;;20.90;90.30;;;;;;5047015;28;20431;-68
2023/10/03 09:05:19;;;;;;;4.15;3.15;;;20.90;90.00;;;;;;5058658;28;20897;-69
2023/10/03 09:07:47;;;;;;;3.42;2.72;;;21.00;90.00;;;;;;5055287;28;20435;-69
2023/10/03 09:10:22;;;;;;;3.10;2.80;;;21.00;90.00;;;;;;5058817;28;20416;-69
2023/10/03 09:12:51;;;;;;;4.50;2.90;;;21.10;89.10;;;;;;5061470;28;20425;-69
2023/10/03 09:15:18;;;;;;;4.35;3.40;;;21.10;89.60;;;;;;5048981;28;20413;-69
2023/10/03 09:17:49;;;;;;;5.80;3.08;;;21.10;89.60;;;;;;5059671;22;20427;-71
2023/10/03 09:20:21;;;;;;;3.47;2.60;;;21.00;90.00;;;;;;5034460;28;20458;-72
2023/10/03 09:22:49;;;;;;;3.75;2.83;;;20.90;90.30;;;;;;5035263;28;20826;-72
2023/10/03 09:25:19;;;;;;;3.97;3.58;;;20.80;90.80;;;;;;5040449;28;20537;-72
2023/10/03 09:27:45;;;;;;;5.50;3.20;;;20.70;91.00;;;;;;5035585;28;20521;-72
2023/10/03 09:30:22;;;;;;;4.50;3.78;;;20.70;93.00;;;;;;5031313;28;20413;-72
2023/10/03 09:32:50;;;;;;;4.10;3.20;;;20.50;97.10;;;;;;5015136;28;20562;-73
2023/10/03 09:35:17;;;;;;;4.53;4.13;;;19.90;99.30;;;;;;5031274;28;20468;-72
2023/10/03 09:37:48;;;;;;;4.73;3.97;;;19.60;99.90;;;;;;5033023;28;20500;-72
2023/10/03 09:40:19;;;;;;;5.88;4.32;;;19.30;99.90;;;;;;5028968;28;20771;-72
2023/10/03 09:42:48;;;;;;;4.82;3.70;;;19.30;99.90;;;;;;5034735;28;20413;-72
2023/10/03 09:45:18;;;;;;;4.50;3.60;;;19.20;99.90;;;;;;5036552;28;20427;-72
2023/10/03 09:47:46;;;;;;;4.95;3.80;;;19.20;99.90;;;;;;5041926;28;20436;-72
2023/10/03 09:50:14;;;;;;;4.13;3.40;;;19.30;99.90;;;;;;5034636;28;20632;-71
2023/10/03 09:52:44;;;;;;;4.60;3.72;;;19.20;99.90;;;;;;5040638;28;20746;-72
2023/10/03 09:55:22;;;;;;;4.50;3.95;;;19.30;99.90;;;;;;5028019;28;20451;-73
2023/10/03 09:57:52;;;;;;;4.47;3.70;;;19.30;99.90;;;;;;5017975;28;20824;-72
2023/10/03 10:00:39;;;;;;;4.40;3.77;;;19.50;99.90;;;;;;5031616;28;20418;-72
2023/10/03 10:03:08;;;;;;;4.85;3.78;;;19.60;99.20;;;;;;5030690;28;20497;-72
2023/10/03 10:05:36;;;;;;;5.25;3.70;;;19.80;98.00;;;;;;5041229;28;20899;-71
2023/10/03 10:08:10;;;;;;;4.70;3.70;;;20.00;97.30;;;;;;5034033;28;20519;-72
2023/10/03 10:10:37;;;;;;;4.03;3.33;;;20.10;97.40;;;;;;5029978;28;20522;-73
2023/10/03 10:13:13;;;;;;;4.55;3.42;;;20.20;96.60;;;;;;5035996;28;20776;-72
2023/10/03 10:16:07;;;;;;;4.30;3.80;;;20.20;96.40;;;;;;5032794;28;20434;-72
2023/10/03 10:19:00;;;;;;;5.90;3.45;;;20.30;95.90;;;;;;5031351;28;20878;-71
2023/10/03 10:21:31;;;;;;;4.15;3.75;;;20.30;95.80;;;;;;5036714;28;20425;-72
2023/10/03 10:24:27;;;;;;;4.63;3.63;;;20.30;95.80;;;;;;5038973;28;20488;-72
2023/10/03 10:26:59;;;;;;;4.30;3.80;;;20.30;96.30;;;;;;5030836;28;20425;-72
2023/10/03 10:29:28;;;;;;;4.70;3.60;;;20.20;96.00;;;;;;5023998;28;20850;-73
2023/10/03 10:31:59;;;;;;;5.80;3.80;;;20.20;95.60;;;;;;5037945;28;20429;-72
2023/10/03 10:34:37;;;;;;;4.75;3.67;;;20.20;95.80;;;;;;5038733;28;20409;-72
2023/10/03 10:37:09;;;;;;;4.28;3.88;;;20.20;95.70;;;;;;5035013;28;20414;-71
2023/10/03 10:40:21;;;;;;;4.40;4.00;;;20.20;96.10;;;;;;5036722;28;20438;-72
2023/10/03 10:43:11;;;;;;;5.60;3.85;;;20.30;96.50;;;;;;5032363;28;20520;-72
2023/10/03 10:45:39;;;;;;;5.10;3.75;;;20.20;97.40;;;;;;5036037;28;20426;-73
2023/10/03 10:48:07;;;;;;;6.20;3.90;;;20.20;98.50;;;;;;5031021;28;20551;-72
2023/10/03 10:51:12;;;;;;;4.90;4.40;;;20.10;99.70;;;;;;5035220;28;20866;-73
2023/10/03 10:53:40;;;;;;;4.80;4.30;;;20.00;99.90;;;;;;5038589;28;20414;-72
2023/10/03 10:56:09;;;;;;;5.55;4.30;;;19.80;99.90;;;;;;5036244;28;20489;-72
2023/10/03 10:58:51;;;;;;;5.60;4.30;;;19.70;99.90;;;;;;5038034;28;20873;-72
2023/10/03 11:01:19;;;;;;;5.80;4.67;;;19.60;99.90;;;;;;5033715;28;20485;-72
2023/10/03 11:03:46;;;;;;;4.53;4.13;;;19.50;99.90;;;;;;5031091;28;20421;-73
2023/10/03 11:06:17;;;;;;;6.13;4.40;;;19.50;99.90;;;;;;5041038;28;20454;-70
2023/10/03 11:08:45;;;;;;;4.60;4.10;;;19.50;99.90;;;;;;5046633;28;20952;-72
2023/10/03 11:11:11;;;;;;;5.35;4.28;;;19.50;99.90;;;;;;5031431;28;20877;-71
2023/10/03 11:13:46;;;;;;;5.47;4.10;;;19.60;99.90;;;;;;5026186;28;20426;-73
2023/10/03 11:16:20;;;;;;;4.70;4.30;;;19.70;99.90;;;;;;5033327;28;20443;-72
2023/10/03 11:18:49;;;;;;;4.70;3.20;;;19.70;99.90;;;;;;5029252;28;20520;-74
2023/10/03 11:21:17;;;;;;;3.23;2.93;;;19.50;99.60;;;;;;5045240;28;20440;-72
2023/10/03 11:24:09;;;;;;;3.10;2.40;;;19.20;97.50;;;;;;5036093;28;20731;-71
2023/10/03 11:26:47;;;;;;;4.13;2.75;;;18.80;98.50;;;;;;5040637;28;20429;-71
2023/10/03 11:29:16;;;;;;;4.85;2.83;;;18.60;99.50;;;;;;5024874;28;20504;-72
2023/10/03 11:31:43;;;;;;;4.30;3.28;;;18.50;99.90;;;;;;5040108;28;20989;-74
2023/10/03 11:34:11;;;;;;;5.18;4.68;;;18.40;99.90;;;;;;5036366;28;20416;-73
2023/10/03 11:36:43;;;;;;;5.63;4.60;;;18.30;99.90;;;;;;5034786;28;20443;-73
2023/10/03 11:39:12;;;;;;;6.38;5.15;;;18.00;99.90;;;;;;5029305;28;20533;-74
2023/10/03 11:41:40;;;;;;;6.50;5.38;;;17.50;99.90;;;;;;5024445;28;20833;-73
2023/10/03 11:44:20;;;;;;;7.43;6.72;;;16.90;99.90;;;;;;5031201;28;20446;-74
2023/10/03 11:46:47;;;;;;;8.43;6.97;;;16.60;99.90;;;;;;5034652;28;20417;-73
2023/10/03 11:49:16;;;;;;;8.47;7.67;;;16.40;99.90;;;;;;5039880;28;20765;-72
2023/10/03 11:51:43;;;;;;;8.52;7.63;;;16.30;99.90;;;;;;5034750;28;20463;-72
2023/10/03 11:54:10;;;;;;;9.60;8.70;;;16.20;99.90;;;;;;5037121;28;20518;-72
2023/10/03 11:56:42;;;;;;;9.60;8.70;;;16.10;99.90;;;;;;5026088;28;20442;-73
2023/10/03 11:59:08;;;;;;;9.48;8.57;;;16.20;99.90;;;;;;5039213;28;20443;-71
2023/10/03 12:01:36;;;;;;;10.15;9.15;;;16.10;99.90;;;;;;5040844;28;20438;-71
2023/10/03 12:04:03;;;;;;;11.90;10.70;;;16.00;99.90;;;;;;5033810;28;20882;-71
2023/10/03 12:06:31;;;;;;;11.82;10.70;;;16.00;99.90;;;;;;5030082;28;20968;-71
2023/10/03 12:08:58;;;;;;;12.13;10.93;;;16.00;99.90;;;;;;5037044;28;20449;-71
2023/10/03 12:11:25;;;;;;;12.48;11.18;;;16.10;99.90;;;;;;5035220;28;20438;-71
2023/10/03 12:13:52;;;;;;;13.10;10.82;;;16.00;99.90;;;;;;5029235;28;20429;-71
2023/10/03 12:16:20;;;;;;;11.35;10.25;;;16.00;99.90;;;;;;5032932;28;20411;-71
2023/10/03 12:18:47;;;;;;;14.52;12.02;;;16.00;99.90;;;;;;5042919;28;20413;-71
2023/10/03 12:21:14;;;;;;;12.90;11.60;;;16.00;99.90;;;;;;5040229;28;20528;-71
2023/10/03 12:23:43;;;;;;;11.80;10.60;;;16.00;99.90;;;;;;5032906;28;20784;-71
2023/10/03 12:26:10;;;;;;;13.13;11.65;;;16.00;99.90;;;;;;5025291;28;20411;-71
2023/10/03 12:28:37;;;;;;;14.32;12.40;;;16.00;99.90;;;;;;5032969;28;20764;-71
2023/10/03 12:31:05;;;;;;;16.20;12.70;;;16.00;99.90;;;;;;5023821;28;20915;-72
2023/10/03 12:33:31;;;;;;;13.50;12.10;;;16.00;99.90;;;;;;5031197;28;20458;-70
2023/10/03 12:36:00;;;;;;;11.35;10.15;;;16.00;99.90;;;;;;5029134;28;20433;-70
2023/10/03 12:38:27;;;;;;;11.30;10.20;;;16.00;99.90;;;;;;5036420;28;20508;-71
2023/10/03 12:40:56;;;;;;;11.60;10.40;;;16.00;99.90;;;;;;5036237;28;20477;-70
2023/10/03 12:43:23;;;;;;;10.70;9.70;;;16.00;99.90;;;;;;5027961;28;21033;-71
2023/10/03 12:45:51;;;;;;;10.38;8.60;;;16.00;99.90;;;;;;5036346;28;20753;-70
2023/10/03 12:48:18;;;;;;;8.50;6.20;;;16.00;99.90;;;;;;5040199;28;20438;-70
2023/10/03 12:50:45;;;;;;;5.13;4.60;;;15.90;99.90;;;;;;5035080;28;20538;-70